< < Back
Terminal Aerodrome Forecast


Current Version              Previous Versions:   1  2  3  4  5  6  7  8  9  

Terminal Aerodrome Forecast

380
FTUS42 KTAE 050636 AAA
TAFDHN
TAF AMD
KDHN 050636Z 0507/0606 20003KT 4SM BR BKN005
     FM051200 28010KT P6SM VCTS BKN010CB
      TEMPO 0512/0515 VRB15G25KT 2SM TSRA SCT010 BKN020CB
     FM060000 27003KT P6SM SCT120 BKN250
      AMD NOT SKED=

Latest METAR

320
SAUS70 KWBC 060800 RRE
MTRDHN
METAR KDHN 060753Z AUTO 00000KT 10SM CLR 21/20 RMK AO2 SLPNO T02110200
$


USA.gov is the U.S. government's official web portal to all federal, state and local government web resources and services.